Time;durP1;ratioP1;P1;durP2;ratioP2;P2;SDS_P1;SDS_P2;PMS_P1;PMS_P2;Temp;Humidity;BMP_temperature;BMP_pressure;BME280_temperature;BME280_humidity;BME280_pressure;Samples;Min_cycle;Max_cycle;Signal;HPM_P1;HPM_P2
2022/06/05 00:01:56;;;;;;;20.13;14.93;;;;;;;17.89;100.00;101635.69;5210902;28;20012;-75
2022/06/05 00:04:50;;;;;;;25.65;14.75;;;;;;;17.89;100.00;101643.81;5212247;28;20029;-77
2022/06/05 00:07:26;;;;;;;26.88;15.98;;;;;;;17.88;100.00;101642.97;5224997;28;20025;-76
2022/06/05 00:10:27;;;;;;;27.27;16.23;;;;;;;17.86;100.00;101626.03;5206855;28;20100;-75
2022/06/05 00:13:20;;;;;;;24.58;16.55;;;;;;;17.84;100.00;101618.09;5205968;28;20033;-75
2022/06/05 00:15:51;;;;;;;22.80;16.58;;;;;;;17.83;100.00;101608.28;5200127;28;20025;-75
2022/06/05 00:18:21;;;;;;;25.00;18.10;;;;;;;17.81;100.00;101599.47;5204721;28;20044;-75
2022/06/05 00:20:53;;;;;;;24.98;17.70;;;;;;;17.76;100.00;101599.22;5205154;28;20033;-76
2022/06/05 00:23:24;;;;;;;25.92;18.02;;;;;;;17.70;100.00;101608.13;5225425;28;20525;-75
2022/06/05 00:26:29;;;;;;;25.00;18.55;;;;;;;17.63;100.00;101596.38;5220917;28;20049;-75
2022/06/05 00:29:29;;;;;;;24.90;17.52;;;;;;;17.61;100.00;101598.41;5205557;28;20041;-75
2022/06/05 00:32:31;;;;;;;26.88;19.25;;;;;;;17.59;100.00;101592.38;5211664;28;20073;-75
2022/06/05 00:35:01;;;;;;;25.55;18.52;;;;;;;17.59;100.00;101595.06;5212110;28;20438;-75
2022/06/05 00:37:51;;;;;;;27.58;19.95;;;;;;;17.58;100.00;101594.25;5217872;28;20029;-75
2022/06/05 00:40:47;;;;;;;32.83;19.33;;;;;;;17.58;100.00;101587.97;5207434;28;20030;-75
2022/06/05 00:43:20;;;;;;;29.80;21.23;;;;;;;17.57;100.00;101573.56;5204216;28;20093;-75
2022/06/05 00:45:53;;;;;;;29.13;19.52;;;;;;;17.56;100.00;101580.00;5210296;28;20021;-75
2022/06/05 00:48:24;;;;;;;25.77;20.02;;;;;;;17.54;100.00;101575.84;5209988;28;20387;-75
2022/06/05 00:50:55;;;;;;;29.75;20.63;;;;;;;17.53;100.00;101563.31;5213920;28;20030;-75
2022/06/05 00:53:25;;;;;;;31.63;20.77;;;;;;;17.53;100.00;101557.88;5216973;28;20048;-75
2022/06/05 00:55:56;;;;;;;26.00;20.30;;;;;;;17.51;100.00;101528.22;5212575;28;20031;-75
2022/06/05 00:58:30;;;;;;;29.75;20.75;;;;;;;17.50;100.00;101531.13;5210681;28;20029;-75
2022/06/05 01:01:01;;;;;;;29.08;20.35;;;;;;;17.49;100.00;101527.59;5224632;28;20025;-75
2022/06/05 01:03:32;;;;;;;28.67;20.65;;;;;;;17.48;100.00;101523.19;5210930;28;20031;-75
2022/06/05 01:06:03;;;;;;;30.70;21.42;;;;;;;17.51;100.00;101525.50;5223573;28;20028;-74
2022/06/05 01:08:34;;;;;;;33.80;21.10;;;;;;;17.51;100.00;101519.25;5202818;28;20056;-74
2022/06/05 01:11:17;;;;;;;29.02;21.58;;;;;;;17.50;100.00;101525.72;5204920;28;20518;-75
2022/06/05 01:14:22;;;;;;;29.65;18.85;;;;;;;17.58;100.00;101510.13;5223969;28;20494;-74
2022/06/05 01:16:59;;;;;;;21.55;16.60;;;;;;;17.60;100.00;101508.06;5212525;28;20048;-74
2022/06/05 01:19:41;;;;;;;32.80;19.23;;;;;;;17.52;100.00;101497.38;5220739;28;20018;-74
2022/06/05 01:22:30;;;;;;;29.25;20.05;;;;;;;17.47;100.00;101477.25;5215915;28;20021;-74
2022/06/05 01:25:00;;;;;;;24.08;18.05;;;;;;;17.46;100.00;101475.59;5203795;28;20032;-75
2022/06/05 01:27:34;;;;;;;25.95;18.00;;;;;;;17.50;100.00;101482.31;5214475;28;20029;-75
2022/06/05 01:30:23;;;;;;;25.17;16.95;;;;;;;17.49;100.00;101486.91;5224083;28;20036;-74
2022/06/05 01:33:19;;;;;;;29.52;20.05;;;;;;;17.39;100.00;101483.69;5209730;28;20033;-75
2022/06/05 01:36:09;;;;;;;29.40;19.08;;;;;;;17.33;100.00;101481.75;5218632;28;20018;-74
2022/06/05 01:38:41;;;;;;;26.80;19.60;;;;;;;17.30;100.00;101472.13;5216626;28;20029;-75
2022/06/05 01:41:17;;;;;;;28.38;20.42;;;;;;;17.29;100.00;101466.91;5202519;28;20117;-74
2022/06/05 01:43:52;;;;;;;27.42;18.98;;;;;;;17.30;100.00;101466.69;5215622;28;20029;-74
2022/06/05 01:46:33;;;;;;;28.17;20.50;;;;;;;17.28;100.00;101457.09;5203377;28;20080;-73
2022/06/05 01:49:22;;;;;;;25.98;19.73;;;;;;;17.25;100.00;101458.31;5216780;28;20268;-72
2022/06/05 01:51:57;;;;;;;27.90;19.90;;;;;;;17.24;100.00;101453.94;5220529;28;20029;-74
2022/06/05 01:54:47;;;;;;;27.17;18.38;;;;;;;17.23;100.00;101457.69;5211436;28;20025;-74
2022/06/05 01:57:21;;;;;;;29.05;18.88;;;;;;;17.21;100.00;101458.91;5203227;28;20043;-73
2022/06/05 01:59:57;;;;;;;28.25;18.63;;;;;;;17.17;100.00;101447.63;5205084;28;20109;-74
2022/06/05 02:02:35;;;;;;;25.13;17.38;;;;;;;17.14;100.00;101439.88;5223572;28;20035;-74
2022/06/05 02:05:13;;;;;;;23.60;17.15;;;;;;;17.14;100.00;101439.88;5205000;28;20022;-73
2022/06/05 02:07:47;;;;;;;23.20;17.42;;;;;;;17.10;100.00;101446.72;5218135;28;20025;-74
2022/06/05 02:10:33;;;;;;;22.65;17.05;;;;;;;17.08;100.00;101440.66;5219008;28;20026;-73
2022/06/05 02:13:11;;;;;;;22.30;16.17;;;;;;;17.05;100.00;101433.75;5207150;28;20029;-73
2022/06/05 02:15:42;;;;;;;22.45;16.77;;;;;;;17.01;100.00;101437.84;5207424;28;20064;-74
2022/06/05 02:18:13;;;;;;;23.15;16.42;;;;;;;16.98;100.00;101421.16;5225048;28;20052;-74
2022/06/05 02:20:44;;;;;;;24.80;17.45;;;;;;;16.95;100.00;101410.72;5214496;28;20090;-73
2022/06/05 02:23:21;;;;;;;23.33;16.63;;;;;;;16.92;100.00;101392.97;5220352;28;20049;-73
2022/06/05 02:25:51;;;;;;;25.70;17.95;;;;;;;16.91;100.00;101395.84;5206804;28;20028;-72
2022/06/05 02:28:22;;;;;;;26.38;18.75;;;;;;;16.86;100.00;101388.31;5206566;28;20033;-72
2022/06/05 02:31:07;;;;;;;27.00;18.35;;;;;;;16.85;100.00;101383.09;5220392;28;20033;-73
2022/06/05 02:33:53;;;;;;;;;;;;;;;16.83;100.00;101383.31;5232328;28;20488;-74
2022/06/05 02:36:33;;;;;;;26.55;19.30;;;;;;;16.82;100.00;101370.78;5216733;28;19931;-74
2022/06/05 02:39:38;;;;;;;27.15;17.80;;;;;;;16.77;100.00;101382.22;5212491;28;20061;-74
2022/06/05 02:42:35;;;;;;;32.80;19.38;;;;;;;16.77;100.00;101367.81;5210004;28;20067;-72
2022/06/05 02:45:21;;;;;;;28.70;19.50;;;;;;;16.72;100.00;101365.69;5226243;28;20099;-73
2022/06/05 02:48:12;;;;;;;28.65;19.25;;;;;;;16.65;100.00;101369.31;5216850;28;20039;-74
2022/06/05 02:50:49;;;;;;;31.90;19.35;;;;;;;16.62;100.00;101372.41;5219925;28;20399;-74
2022/06/05 02:53:19;;;;;;;29.88;20.20;;;;;;;16.59;100.00;101365.53;5219806;28;20013;-72
2022/06/05 02:55:50;;;;;;;30.50;19.65;;;;;;;16.60;100.00;101369.06;5215475;28;20501;-75
2022/06/05 02:58:20;;;;;;;31.17;19.50;;;;;;;16.60;100.00;101363.66;5212983;28;20056;-75
2022/06/05 03:03:39;;;;;;;36.53;21.10;;;;;;;16.57;100.00;101367.59;5219593;28;20108;-73
2022/06/05 03:06:10;;;;;;;30.55;19.55;;;;;;;16.56;100.00;101371.31;5205855;28;20143;-73
2022/06/05 03:08:41;;;;;;;30.35;19.83;;;;;;;16.55;100.00;101375.06;5205836;28;20544;-74
2022/06/05 03:11:12;;;;;;;38.45;20.45;;;;;;;16.53;100.00;101369.00;5220959;28;20029;-75
2022/06/05 03:13:43;;;;;;;30.23;20.40;;;;;;;16.53;100.00;101371.72;5217456;28;20064;-75
2022/06/05 03:16:13;;;;;;;29.63;21.30;;;;;;;16.53;100.00;101369.00;5205981;28;20530;-73
2022/06/05 03:18:44;;;;;;;35.45;20.33;;;;;;;16.54;100.00;101384.22;5216362;28;20025;-72
2022/06/05 03:21:15;;;;;;;29.75;20.38;;;;;;;16.54;100.00;101370.69;5225850;28;20104;-73
2022/06/05 03:23:46;;;;;;;34.13;20.75;;;;;;;16.55;100.00;101373.19;5226469;28;20178;-73
2022/06/05 03:26:17;;;;;;;30.00;20.55;;;;;;;16.56;100.00;101369.44;5220228;28;20014;-73
2022/06/05 03:28:47;;;;;;;31.77;21.52;;;;;;;16.60;100.00;101363.66;5226433;28;20029;-73
2022/06/05 03:31:18;;;;;;;27.70;18.75;;;;;;;16.61;100.00;101363.44;5216822;28;20033;-74
2022/06/05 03:33:49;;;;;;;27.83;20.35;;;;;;;16.64;100.00;101365.78;5218804;28;20726;-74
2022/06/05 03:36:19;;;;;;;29.42;19.55;;;;;;;16.64;100.00;101360.38;5213933;28;20029;-75
2022/06/05 03:38:50;;;;;;;31.10;20.60;;;;;;;16.65;100.00;101358.50;5212568;28;20102;-74
2022/06/05 03:41:20;;;;;;;30.60;19.95;;;;;;;16.63;100.00;101364.13;5205876;28;20017;-74
2022/06/05 03:43:51;;;;;;;28.92;18.83;;;;;;;16.63;100.00;101357.88;5218678;28;20496;-74
2022/06/05 03:46:21;;;;;;;32.78;21.02;;;;;;;16.62;100.00;101358.88;5216724;28;20021;-74
2022/06/05 03:48:52;;;;;;;31.00;19.65;;;;;;;16.60;100.00;101360.94;5220521;28;20029;-74
2022/06/05 03:51:23;;;;;;;32.53;21.25;;;;;;;16.60;100.00;101364.50;5205053;28;20025;-74
2022/06/05 03:53:53;;;;;;;28.92;19.42;;;;;;;16.59;100.00;101357.41;5205375;28;20364;-74
2022/06/05 03:56:25;;;;;;;26.42;18.88;;;;;;;16.59;100.00;101357.41;5204164;28;20432;-74
2022/06/05 03:58:57;;;;;;;26.60;19.52;;;;;;;16.60;100.00;101358.22;5206126;28;20025;-73
2022/06/05 04:01:28;;;;;;;27.70;18.98;;;;;;;16.59;100.00;101349.28;5206578;28;20025;-74
2022/06/05 04:03:58;;;;;;;28.73;18.92;;;;;;;16.63;100.00;101349.72;5224934;28;20478;-74
2022/06/05 04:06:30;;;;;;;27.63;18.67;;;;;;;16.65;100.00;101347.66;5203475;28;20022;-73
2022/06/05 04:09:04;;;;;;;28.83;17.88;;;;;;;16.65;100.00;101350.38;5203568;28;20434;-73
2022/06/05 04:11:37;;;;;;;25.85;18.00;;;;;;;16.64;100.00;101351.41;5204783;28;20308;-73
2022/06/05 04:14:08;;;;;;;27.05;17.98;;;;;;;16.64;100.00;101356.81;5204707;28;20031;-72
2022/06/05 04:16:41;;;;;;;23.90;17.13;;;;;;;16.66;100.00;101357.47;5205293;28;20323;-73
2022/06/05 04:19:11;;;;;;;28.92;18.33;;;;;;;16.67;100.00;101351.03;5218466;28;20020;-73
2022/06/05 04:21:44;;;;;;;26.08;17.83;;;;;;;16.69;100.00;101349.78;5217415;28;20029;-73
2022/06/05 04:24:16;;;;;;;29.52;18.52;;;;;;;16.73;100.00;101343.00;5204876;28;20116;-73
2022/06/05 04:26:46;;;;;;;26.67;18.48;;;;;;;16.74;100.00;101343.81;5209683;28;20458;-74
2022/06/05 04:29:18;;;;;;;24.40;16.65;;;;;;;16.76;100.00;101341.75;5211544;28;20024;-73
2022/06/05 04:31:49;;;;;;;24.48;16.02;;;;;;;16.78;100.00;101345.13;5211840;28;20032;-73
2022/06/05 04:34:22;;;;;;;22.83;16.95;;;;;;;16.79;100.00;101344.06;5222813;28;20025;-73
2022/06/05 04:36:54;;;;;;;25.65;16.27;;;;;;;16.78;100.00;101347.81;5211987;28;20502;-72
2022/06/05 04:39:24;;;;;;;24.08;16.60;;;;;;;16.78;100.00;101345.94;5221162;28;20029;-73
2022/06/05 04:41:55;;;;;;;23.25;15.30;;;;;;;16.77;100.00;101346.16;5204402;28;20021;-72
2022/06/05 04:44:25;;;;;;;22.67;16.65;;;;;;;16.80;100.00;101349.28;5205047;28;20382;-73
2022/06/05 04:46:56;;;;;;;22.52;16.00;;;;;;;16.80;100.00;101345.75;5207413;28;20024;-72
2022/06/05 04:49:26;;;;;;;25.13;16.60;;;;;;;16.80;100.00;101338.44;5213340;28;20106;-72
2022/06/05 04:51:57;;;;;;;23.55;15.50;;;;;;;16.79;100.00;101342.19;5204147;28;20087;-73
2022/06/05 04:54:27;;;;;;;22.50;15.85;;;;;;;16.78;100.00;101334.28;5224810;28;20078;-72
2022/06/05 04:56:58;;;;;;;23.50;16.35;;;;;;;16.77;100.00;101330.72;5205492;28;20395;-73
2022/06/05 04:59:28;;;;;;;27.58;17.52;;;;;;;16.76;100.00;101328.19;5204638;28;20032;-71
2022/06/05 05:01:59;;;;;;;30.33;16.83;;;;;;;16.76;100.00;101326.31;5224715;28;20475;-73
2022/06/05 05:04:29;;;;;;;25.77;16.52;;;;;;;16.79;100.00;101319.69;5223993;28;20025;-73
2022/06/05 05:07:00;;;;;;;23.63;16.15;;;;;;;16.76;100.00;101312.78;5212581;28;20021;-73
2022/06/05 05:09:30;;;;;;;26.10;17.75;;;;;;;16.77;100.00;101303.63;5225101;28;20116;-72
2022/06/05 05:12:01;;;;;;;22.80;16.80;;;;;;;16.78;100.00;101321.56;5224910;28;20041;-73
2022/06/05 05:14:32;;;;;;;22.50;16.90;;;;;;;16.79;100.00;101306.97;5208038;28;20029;-72
2022/06/05 05:17:03;;;;;;;24.55;16.52;;;;;;;16.80;100.00;101302.38;5204452;28;20025;-72
2022/06/05 05:19:34;;;;;;;25.40;17.48;;;;;;;16.85;100.00;101301.81;5204028;28;20025;-72
2022/06/05 05:22:04;;;;;;;26.23;15.50;;;;;;;16.88;100.00;101304.97;5215775;28;20105;-72
2022/06/05 05:24:35;;;;;;;24.67;16.45;;;;;;;16.91;100.00;101301.84;5211038;28;20390;-71
2022/06/05 05:27:06;;;;;;;22.95;15.55;;;;;;;16.94;100.00;101287.09;5218900;28;20035;-71
2022/06/05 05:29:39;;;;;;;25.05;15.80;;;;;;;16.96;100.00;101291.25;5201140;28;20116;-71
2022/06/05 05:32:10;;;;;;;26.73;16.63;;;;;;;16.97;100.00;101287.53;5216458;28;20025;-70
2022/06/05 05:34:41;;;;;;;24.02;15.65;;;;;;;17.03;100.00;101285.91;5223135;28;20039;-71
2022/06/05 05:37:11;;;;;;;28.77;16.10;;;;;;;17.09;100.00;101287.81;5220043;28;20487;-71
2022/06/05 05:42:32;;;;;;;21.20;15.38;;;;;;;17.14;100.00;101281.78;5202190;28;20482;-71
2022/06/05 05:45:05;;;;;;;20.02;14.07;;;;;;;17.16;100.00;101275.13;5216346;28;20367;-71
2022/06/05 05:47:35;;;;;;;20.83;15.07;;;;;;;17.18;100.00;101272.22;5214393;28;20033;-71
2022/06/05 05:50:11;;;;;;;23.90;14.80;;;;;;;17.18;100.00;101270.34;5201933;28;20029;-71
2022/06/05 05:52:43;;;;;;;19.90;14.25;;;;;;;17.24;100.00;101272.25;5202107;28;20070;-70
2022/06/05 05:55:16;;;;;;;31.25;15.70;;;;;;;17.26;100.00;101264.75;5216140;28;20029;-72
2022/06/05 05:57:47;;;;;;;21.80;14.77;;;;;;;17.33;100.00;101262.09;5205281;28;20037;-72
2022/06/05 06:00:19;;;;;;;20.75;15.00;;;;;;;17.38;100.00;101262.34;5221587;28;20518;-72
2022/06/05 06:02:50;;;;;;;21.92;14.68;;;;;;;17.48;100.00;101259.25;5223996;28;20040;-72
2022/06/05 06:05:21;;;;;;;20.58;13.93;;;;;;;17.55;100.00;101260.94;5202986;28;20034;-72
2022/06/05 06:07:51;;;;;;;20.05;14.23;;;;;;;17.64;100.00;101258.06;5201814;28;20390;-72
2022/06/05 06:10:22;;;;;;;18.65;14.60;;;;;;;17.66;100.00;101253.25;5201944;28;20030;-71
2022/06/05 06:12:52;;;;;;;22.10;15.40;;;;;;;17.70;100.00;101262.69;5204497;28;20025;-73
2022/06/05 06:15:23;;;;;;;22.23;15.18;;;;;;;17.76;100.00;101257.28;5213608;28;20375;-72
2022/06/05 06:17:53;;;;;;;19.48;15.45;;;;;;;17.81;100.00;101262.94;5203123;28;20033;-72
2022/06/05 06:20:25;;;;;;;21.50;15.27;;;;;;;17.89;100.00;101261.94;5202740;28;20033;-72
2022/06/05 06:22:55;;;;;;;21.33;15.63;;;;;;;17.97;100.00;101258.19;5203214;28;20033;-72
2022/06/05 06:25:26;;;;;;;21.75;15.07;;;;;;;18.02;100.00;101261.13;5202774;28;20026;-72
2022/06/05 06:27:56;;;;;;;18.05;14.90;;;;;;;18.10;100.00;101256.34;5217349;28;20111;-72
2022/06/05 06:30:27;;;;;;;20.50;15.02;;;;;;;18.18;100.00;101263.47;5208742;28;20403;-72
2022/06/05 06:32:57;;;;;;;19.58;14.95;;;;;;;18.28;100.00;101268.50;5211069;28;20052;-72
2022/06/05 06:35:28;;;;;;;24.65;15.43;;;;;;;18.38;100.00;101271.66;5209787;28;20107;-72
2022/06/05 06:37:59;;;;;;;20.58;15.32;;;;;;;18.49;100.00;101259.34;5213329;28;20021;-72
2022/06/05 06:40:29;;;;;;;21.35;15.00;;;;;;;18.66;100.00;101262.47;5205977;28;20033;-72
2022/06/05 06:43:00;;;;;;;22.40;15.52;;;;;;;18.90;100.00;101261.84;5202617;28;20458;-72
2022/06/05 06:45:30;;;;;;;20.70;14.65;;;;;;;19.23;100.00;101269.09;5220353;28;20564;-72
2022/06/05 06:48:01;;;;;;;23.23;15.57;;;;;;;19.65;100.00;101274.03;5223843;28;20112;-73
2022/06/05 06:50:31;;;;;;;21.42;14.95;;;;;;;20.10;100.00;101276.72;5209571;28;20501;-73
2022/06/05 06:53:02;;;;;;;17.95;14.43;;;;;;;20.60;100.00;101281.44;5210233;28;20435;-73
2022/06/05 06:55:33;;;;;;;19.75;13.55;;;;;;;21.07;100.00;101279.97;5224897;28;20029;-73
2022/06/05 06:58:03;;;;;;;19.63;14.57;;;;;;;21.52;100.00;101282.44;5213337;28;20053;-71
2022/06/05 07:00:34;;;;;;;17.30;13.90;;;;;;;21.98;100.00;101287.31;5218959;28;20021;-73
2022/06/05 07:03:04;;;;;;;19.05;13.00;;;;;;;22.30;100.00;101273.44;5206340;28;20485;-73
2022/06/05 07:05:36;;;;;;;17.33;13.43;;;;;;;22.68;100.00;101286.69;5205994;28;20037;-73
2022/06/05 07:08:08;;;;;;;15.43;11.38;;;;;;;23.16;100.00;101284.84;5205688;28;20030;-73
2022/06/05 07:10:39;;;;;;;16.58;13.02;;;;;;;23.57;100.00;101280.25;5217028;28;20025;-73
2022/06/05 07:13:10;;;;;;;17.27;11.90;;;;;;;23.68;100.00;101285.72;5225602;28;20047;-73
2022/06/05 07:15:40;;;;;;;13.77;11.57;;;;;;;23.86;100.00;101275.69;5214372;28;20029;-73
2022/06/05 07:18:11;;;;;;;13.55;11.35;;;;;;;24.38;100.00;101278.31;5225219;28;20116;-73
2022/06/05 07:20:43;;;;;;;13.60;11.95;;;;;;;24.87;100.00;101271.19;5213057;28;20570;-73
2022/06/05 07:23:14;;;;;;;15.82;12.02;;;;;;;25.37;100.00;101264.78;5207883;28;20092;-73
2022/06/05 07:25:47;;;;;;;15.57;10.90;;;;;;;25.61;100.00;101264.53;5218250;28;20108;-74
2022/06/05 07:28:19;;;;;;;13.32;10.77;;;;;;;25.83;100.00;101257.94;5223655;28;20039;-73
2022/06/05 07:30:51;;;;;;;15.27;11.45;;;;;;;26.02;100.00;101252.94;5222517;28;20060;-74
2022/06/05 07:33:23;;;;;;;13.25;10.65;;;;;;;26.16;100.00;101247.84;5216461;28;20028;-73
2022/06/05 07:35:56;;;;;;;11.82;10.63;;;;;;;26.11;100.00;101257.97;5207269;28;20018;-74
2022/06/05 07:38:27;;;;;;;12.60;11.30;;;;;;;26.23;100.00;101251.22;5218430;28;20120;-74
2022/06/05 07:40:57;;;;;;;12.88;10.73;;;;;;;26.53;100.00;101245.16;5222200;28;20537;-74
2022/06/05 07:43:28;;;;;;;12.52;10.45;;;;;;;26.43;100.00;101250.59;5211234;28;20029;-71
2022/06/05 07:46:15;;;;;;;15.27;11.05;;;;;;;26.33;100.00;101254.03;5213832;28;20088;-70
2022/06/05 07:48:47;;;;;;;13.15;11.02;;;;;;;26.36;100.00;101244.47;5212614;28;20509;-71
2022/06/05 07:54:27;;;;;;;12.88;10.48;;;;;;;25.08;100.00;101228.41;5204793;28;20021;-71
2022/06/05 07:57:15;;;;;;;14.15;11.45;;;;;;;23.91;100.00;101218.25;5205041;28;20095;-70
2022/06/05 07:59:47;;;;;;;13.27;11.93;;;;;;;23.72;100.00;101209.41;5205121;28;20021;-72
2022/06/05 08:02:21;;;;;;;17.17;11.32;;;;;;;23.64;100.00;101207.03;5213803;28;20470;-72
2022/06/05 08:04:53;;;;;;;13.60;11.25;;;;;;;23.33;100.00;101211.03;5208166;28;20032;-72
2022/06/05 08:07:26;;;;;;;15.02;10.95;;;;;;;23.43;100.00;101209.34;5215802;28;20082;-73
2022/06/05 08:09:57;;;;;;;12.85;11.02;;;;;;;23.42;100.00;101213.16;5220215;28;20025;-70
2022/06/05 08:12:31;;;;;;;14.25;11.38;;;;;;;23.33;100.00;101203.66;5217436;28;20025;-70
2022/06/05 08:15:08;;;;;;;14.25;12.10;;;;;;;23.23;100.00;101200.72;5204590;28;20040;-71
2022/06/05 08:17:40;;;;;;;14.27;11.57;;;;;;;23.21;100.00;101198.22;5218256;28;20051;-72
2022/06/05 08:20:12;;;;;;;17.15;12.40;;;;;;;23.21;100.00;101192.75;5212795;28;20036;-71
2022/06/05 08:22:43;;;;;;;13.20;11.23;;;;;;;23.19;100.00;101191.31;5221736;28;20078;-70
2022/06/05 08:25:14;;;;;;;15.95;11.57;;;;;;;23.01;100.00;101197.78;5202912;28;20496;-71
2022/06/05 08:27:46;;;;;;;12.95;10.48;;;;;;;22.97;100.00;101197.44;5204591;28;20030;-70
2022/06/05 08:30:16;;;;;;;16.40;12.30;;;;;;;22.90;100.00;101201.38;5216011;28;20033;-71
2022/06/05 08:32:47;;;;;;;16.25;12.15;;;;;;;22.99;100.00;101195.28;5229046;28;20029;-70
2022/06/05 08:35:17;;;;;;;14.20;11.45;;;;;;;23.12;100.00;101196.94;5213310;28;20029;-70
2022/06/05 08:44:02;;;;;;;20.25;12.55;;;;;;;23.08;100.00;101205.84;5210189;28;20021;-70
2022/06/05 08:46:41;;;;;;;19.05;11.95;;;;;;;23.10;100.00;101206.47;5203850;28;20040;-70
2022/06/05 08:49:15;;;;;;;14.57;10.52;;;;;;;23.02;100.00;101204.91;5203951;28;20059;-70
2022/06/05 08:52:02;;;;;;;13.18;11.18;;;;;;;22.93;100.00;101203.59;5219285;28;20029;-70
2022/06/05 08:55:10;;;;;;;14.82;11.50;;;;;;;22.73;100.00;101203.94;5212270;28;20511;-70
2022/06/05 08:57:59;;;;;;;13.80;11.43;;;;;;;22.62;100.00;101208.34;5214690;28;20021;-71
2022/06/05 09:00:29;;;;;;;15.75;12.18;;;;;;;22.45;100.00;101197.28;5203374;28;20025;-70
2022/06/05 09:03:13;;;;;;;16.00;12.30;;;;;;;22.37;100.00;101211.28;5204565;28;20403;-70
2022/06/05 09:05:47;;;;;;;16.00;12.35;;;;;;;22.31;100.00;101206.78;5214533;28;20032;-70
2022/06/05 09:08:22;;;;;;;13.57;12.17;;;;;;;22.34;100.00;101209.06;5221349;28;20039;-70
2022/06/05 09:10:59;;;;;;;15.25;12.07;;;;;;;22.23;100.00;101199.75;5211428;28;20038;-70
2022/06/05 09:13:53;;;;;;;16.73;12.20;;;;;;;22.20;100.00;101194.75;5210864;28;20029;-70
2022/06/05 09:16:28;;;;;;;14.43;11.55;;;;;;;22.24;100.00;101197.88;5205977;28;20021;-70
2022/06/05 09:19:00;;;;;;;15.50;11.95;;;;;;;22.30;100.00;101188.72;5215716;28;20029;-70
2022/06/05 09:21:42;;;;;;;15.88;12.25;;;;;;;22.34;100.00;101178.13;5217026;28;20083;-71
2022/06/05 09:24:19;;;;;;;14.45;12.50;;;;;;;22.44;100.00;101179.22;5215546;28;20040;-70
2022/06/05 09:27:14;;;;;;;16.98;11.57;;;;;;;22.56;100.00;101165.56;5207540;28;20393;-70
2022/06/05 09:30:09;;;;;;;20.80;13.50;;;;;;;22.48;100.00;101174.09;5215677;28;20025;-70
2022/06/05 09:33:17;;;;;;;16.60;13.95;;;;;;;22.29;100.00;101195.25;5208452;28;20104;-71
2022/06/05 09:35:54;;;;;;;16.30;13.38;;;;;;;22.06;100.00;101200.63;5219441;28;20065;-70
2022/06/05 09:38:31;;;;;;;17.00;14.10;;;;;;;21.85;100.00;101200.09;5215334;28;20403;-70
2022/06/05 09:41:03;;;;;;;17.10;14.38;;;;;;;21.63;100.00;101188.00;5212887;28;20048;-70
2022/06/05 09:43:53;;;;;;;17.80;14.30;;;;;;;21.45;100.00;101194.34;5216440;28;20512;-71
2022/06/05 09:46:49;;;;;;;20.80;15.00;;;;;;;21.26;100.00;101184.50;5215037;28;20036;-71
2022/06/05 09:49:23;;;;;;;18.80;15.23;;;;;;;21.16;100.00;101182.28;5212483;28;20029;-70
2022/06/05 09:52:14;;;;;;;19.67;16.98;;;;;;;20.98;100.00;101187.75;5223536;28;20119;-71
2022/06/05 09:54:48;;;;;;;21.63;16.92;;;;;;;20.82;100.00;101183.72;5222637;28;20078;-70
2022/06/05 10:00:40;;;;;;;23.52;16.20;;;;;;;20.40;100.00;101189.75;5209897;28;20390;-71
2022/06/05 10:03:14;;;;;;;20.42;16.77;;;;;;;20.25;100.00;101194.69;5209648;28;20032;-72
2022/06/05 10:06:07;;;;;;;26.50;18.98;;;;;;;20.12;100.00;101197.50;5212349;28;20056;-72
2022/06/05 10:08:42;;;;;;;24.88;19.00;;;;;;;19.95;100.00;101199.94;5211447;28;20331;-72
2022/06/05 10:11:31;;;;;;;;;;;;;;;19.82;100.00;101197.28;5210791;28;20057;-73
2022/06/05 10:14:21;;;;;;;28.85;21.70;;;;;;;19.68;100.00;101202.00;5223482;28;19908;-74
2022/06/05 10:16:58;;;;;;;40.30;25.92;;;;;;;19.54;100.00;101209.34;5214542;28;20522;-73
2022/06/05 10:19:43;;;;;;;36.90;26.08;;;;;;;19.44;100.00;101210.88;5207489;28;20470;-72
2022/06/05 10:22:27;;;;;;;40.65;27.90;;;;;;;19.32;100.00;101208.81;5209931;28;20022;-72
2022/06/05 10:25:21;;;;;;;37.47;28.02;;;;;;;19.15;100.00;101218.50;5214195;28;20022;-72
2022/06/05 10:27:55;;;;;;;46.10;31.80;;;;;;;19.07;100.00;101216.84;5201567;28;20483;-73
2022/06/05 10:30:34;;;;;;;49.20;32.35;;;;;;;19.03;100.00;101212.91;5204388;28;20223;-72
2022/06/05 10:33:17;;;;;;;45.47;30.48;;;;;;;19.01;100.00;101204.09;5214452;28;20082;-74
2022/06/05 10:35:53;;;;;;;46.25;31.17;;;;;;;19.04;100.00;101202.84;5222348;28;20104;-72
2022/06/05 10:38:59;;;;;;;56.15;35.78;;;;;;;18.95;100.00;101193.25;5218936;28;20028;-72
2022/06/05 10:41:47;;;;;;;79.97;34.47;;;;;;;18.87;100.00;101195.13;5218337;28;20025;-72
2022/06/05 10:44:47;;;;;;;74.85;35.05;;;;;;;18.72;100.00;101188.28;5206483;28;20283;-71
2022/06/05 10:47:27;;;;;;;71.20;38.10;;;;;;;18.61;100.00;101197.88;5211985;28;20029;-71
2022/06/05 10:50:15;;;;;;;80.05;36.75;;;;;;;18.53;100.00;101195.38;5213516;28;20040;-72
2022/06/05 10:53:07;;;;;;;59.35;35.83;;;;;;;18.37;100.00;101193.91;5216126;28;20434;-71
2022/06/05 10:56:15;;;;;;;57.85;37.40;;;;;;;18.23;100.00;101186.81;5214002;28;20108;-72
2022/06/05 10:58:58;;;;;;;70.10;38.40;;;;;;;18.12;100.00;101185.53;5213427;28;20027;-71
2022/06/05 11:01:48;;;;;;;75.80;39.30;;;;;;;18.10;100.00;101180.31;5223393;28;20391;-71
2022/06/05 11:04:42;;;;;;;62.53;38.47;;;;;;;17.99;100.00;101183.66;5217328;28;20029;-71
2022/06/05 11:07:19;;;;;;;57.47;35.47;;;;;;;17.95;100.00;101178.84;5216378;28;20029;-71
2022/06/05 11:10:02;;;;;;;57.08;38.08;;;;;;;17.96;100.00;101181.34;5221857;28;20029;-72
2022/06/05 11:15:54;;;;;;;78.20;39.08;;;;;;;17.81;100.00;101178.81;5212966;28;20029;-71
2022/06/05 11:18:38;;;;;;;61.97;38.28;;;;;;;17.86;100.00;101173.59;5214283;28;20029;-72
2022/06/05 11:21:10;;;;;;;115.20;44.80;;;;;;;17.81;100.00;101169.84;5226292;28;20435;-71
2022/06/05 11:23:42;;;;;;;99.68;47.17;;;;;;;17.78;100.00;101181.97;5226929;28;20017;-71
2022/06/05 11:26:26;;;;;;;136.75;47.92;;;;;;;17.82;100.00;101176.94;5212187;28;20021;-72
2022/06/05 11:29:10;;;;;;;116.43;47.50;;;;;;;17.81;100.00;101184.25;5219220;28;20017;-72
2022/06/05 11:31:54;;;;;;;142.57;50.38;;;;;;;17.79;100.00;101185.50;5216393;28;20029;-71
2022/06/05 11:34:44;;;;;;;113.53;47.17;;;;;;;17.69;100.00;101188.59;5219766;28;20383;-71
2022/06/05 11:37:34;;;;;;;74.35;42.38;;;;;;;17.78;100.00;101198.25;5205597;28;20405;-71
2022/06/05 11:40:23;;;;;;;66.72;40.60;;;;;;;17.77;100.00;101191.16;5211446;28;20425;-72
2022/06/05 11:43:03;;;;;;;71.30;41.63;;;;;;;17.78;100.00;101200.97;5214881;28;20036;-71
2022/06/05 11:46:11;;;;;;;70.63;41.47;;;;;;;17.80;100.00;101198.03;5213585;28;20436;-71
2022/06/05 11:49:18;;;;;;;75.47;43.08;;;;;;;17.77;100.00;101204.72;5212710;28;20032;-72
2022/06/05 11:52:26;;;;;;;75.60;43.92;;;;;;;17.68;100.00;101208.63;5212578;28;20036;-72
2022/06/05 11:55:33;;;;;;;80.78;45.03;;;;;;;17.72;100.00;101214.44;5212609;28;20399;-72
2022/06/05 11:58:11;;;;;;;86.40;48.55;;;;;;;17.65;100.00;101216.31;5225040;28;20078;-72
2022/06/05 12:00:52;;;;;;;83.15;47.58;;;;;;;17.67;100.00;101219.66;5204544;28;20033;-71
2022/06/05 12:03:37;;;;;;;83.28;47.67;;;;;;;17.60;100.00;101211.50;5207685;28;20403;-72
2022/06/05 12:06:45;;;;;;;88.28;48.83;;;;;;;17.56;100.00;101224.63;5217086;28;20029;-72
2022/06/05 12:09:18;;;;;;;94.70;51.00;;;;;;;17.49;100.00;101222.94;5216450;28;20059;-72